»·PEaware :: N614FT P20-KRYN

N614FT :: P20-KRYN

FLIGHT INFORMATION

Flight Status: Arrived
Operator: Privately registered:
United States
More flights under this callsign
Pilot: Carlos A. (16805)
Aircraft: PIPER PA-31/31P NAVAJO CHIEFTAIN
(PA31)
More flights by this aircraft type
Origin: P20 Avi Suquilla
United States
Destination: KRYN Ryan
United States
More flights between these airports :: More routes between these airports
Route: PKE V135 BLH V94 GBN TFD
File this flight plan on PilotEdge
Remarks: Arizona Alphabet Challenge | VCOA RWY01
Altitude:
(Current/Filed)
7,000ft
Speed:
(Current/Filed)
180kts
Departed: 18-Sep-23 02:25 PM
Arrived: 18-Sep-23 03:55 PM
Distance/Time
Traveled:
197nm/1:30
Distance/Time
To Go:
Arrived

Flight Plot

Page will automatically refresh every two minutes.

Flight plan parsing failed; only flown route is shown


Map Options




Map Legend


Flown Route
Filed Route
Departure Airport
Arrival Airport
Navaid (VOR, NDB)
Fix

Horizontal Profiles

Position Reports

Time Latitude Longitude Heading Altitude Ground
Speed
18-Sep-23 13:38 34.154044 -114.270873 296 456ft 0kts
18-Sep-23 13:39 34.154044 -114.270875 296 456ft 0kts
18-Sep-23 13:40 34.154045 -114.270876 296 456ft 0kts
18-Sep-23 13:41 34.154046 -114.270878 296 456ft 0kts
18-Sep-23 13:42 34.154046 -114.270880 296 456ft 0kts
18-Sep-23 13:43 34.154047 -114.270882 296 456ft 0kts
18-Sep-23 13:44 34.154048 -114.270883 296 456ft 0kts
18-Sep-23 13:45 34.154048 -114.270885 296 456ft 0kts
18-Sep-23 13:46 34.154049 -114.270887 296 456ft 0kts
18-Sep-23 13:47 34.154050 -114.270888 296 456ft 0kts
18-Sep-23 13:48 34.154051 -114.270890 296 456ft 0kts
18-Sep-23 13:49 34.154051 -114.270892 296 456ft 0kts
18-Sep-23 13:50 34.154052 -114.270894 296 456ft 0kts
18-Sep-23 13:51 34.154053 -114.270895 296 456ft 0kts
18-Sep-23 13:52 34.154053 -114.270897 296 456ft 0kts
18-Sep-23 13:53 34.154054 -114.270899 296 456ft 0kts
18-Sep-23 13:54 34.154055 -114.270900 296 456ft 0kts
18-Sep-23 13:55 34.154055 -114.270902 296 456ft 0kts
18-Sep-23 13:56 34.154078 -114.270949 300 456ft 0kts
18-Sep-23 13:57 34.154262 -114.270874 36 456ft 0kts
18-Sep-23 13:58 34.154282 -114.270788 160 456ft 0kts
18-Sep-23 13:59 34.154234 -114.270768 162 456ft 0kts
18-Sep-23 14:00 34.153791 -114.270708 173 456ft 16kts
18-Sep-23 14:01 34.154229 -114.270990 151 456ft 1kts
18-Sep-23 14:02 34.154175 -114.270954 150 456ft 0kts
18-Sep-23 14:03 34.154156 -114.270941 150 456ft 0kts
18-Sep-23 14:04 34.154150 -114.270937 150 456ft 0kts
18-Sep-23 14:05 34.154149 -114.270936 150 456ft 0kts
18-Sep-23 14:06 34.154143 -114.270932 150 456ft 0kts
18-Sep-23 14:07 34.154141 -114.270931 150 456ft 0kts
18-Sep-23 14:08 34.154139 -114.270929 150 456ft 0kts
18-Sep-23 14:09 34.154136 -114.270927 150 456ft 0kts
18-Sep-23 14:10 34.154115 -114.270913 150 456ft 0kts
18-Sep-23 14:11 34.154112 -114.270911 150 456ft 0kts
18-Sep-23 14:12 34.154109 -114.270909 150 456ft 0kts
18-Sep-23 14:13 34.152852 -114.271197 204 456ft 9kts
18-Sep-23 14:14 34.151637 -114.271272 203 456ft 8kts
18-Sep-23 14:15 34.147730 -114.273601 205 456ft 20kts
18-Sep-23 14:16 34.145071 -114.275023 126 456ft 0kts
18-Sep-23 14:17 34.145070 -114.275022 126 456ft 0kts
18-Sep-23 14:18 34.145070 -114.275020 126 456ft 0kts
18-Sep-23 14:19 34.145069 -114.275019 126 456ft 0kts
18-Sep-23 14:20 34.145068 -114.275018 126 456ft 0kts
18-Sep-23 14:21 34.145068 -114.275017 126 456ft 0kts
18-Sep-23 14:22 34.145067 -114.275016 126 456ft 0kts
18-Sep-23 14:23 34.144987 -114.274578 33 456ft 0kts
18-Sep-23 14:24 34.160785 -114.266085 22 1037ft 103kts
18-Sep-23 14:25 34.176723 -114.242262 117 2062ft 110kts
18-Sep-23 14:26 34.154717 -114.245458 230 3458ft 90kts
18-Sep-23 14:27 34.148786 -114.283590 256 4764ft 132kts
18-Sep-23 14:28 34.142930 -114.325753 256 5994ft 137kts
18-Sep-23 14:29 34.135819 -114.371146 257 7433ft 145kts
18-Sep-23 14:30 34.128537 -114.417845 251 8463ft 152kts
18-Sep-23 14:31 34.121073 -114.475094 257 9121ft 192kts
18-Sep-23 14:32 34.116458 -114.546415 262 8970ft 221kts
18-Sep-23 14:33 34.105980 -114.617618 242 9035ft 209kts
18-Sep-23 14:34 34.069919 -114.672039 218 9060ft 205kts
18-Sep-23 14:35 34.017005 -114.692240 182 9036ft 204kts
18-Sep-23 14:36 33.959314 -114.698658 187 8961ft 205kts
18-Sep-23 14:37 33.902810 -114.706740 181 8888ft 205kts
18-Sep-23 14:38 33.845821 -114.709425 182 8907ft 203kts
18-Sep-23 14:39 33.788928 -114.719274 188 8889ft 209kts
18-Sep-23 14:40 33.732093 -114.729366 190 8924ft 209kts
18-Sep-23 14:41 33.675517 -114.743903 193 8929ft 209kts
18-Sep-23 14:42 33.619216 -114.748190 145 8850ft 205kts
18-Sep-23 14:43 33.596480 -114.686001 101 8891ft 214kts
18-Sep-23 14:44 33.590490 -114.617152 99 8935ft 206kts
18-Sep-23 14:45 33.584346 -114.548602 94 8974ft 206kts
18-Sep-23 14:46 33.581307 -114.479831 101 8899ft 205kts
18-Sep-23 14:47 33.575366 -114.411843 96 8894ft 206kts
18-Sep-23 14:48 33.573737 -114.342013 98 8929ft 208kts
18-Sep-23 14:49 33.562419 -114.274076 99 8962ft 208kts
18-Sep-23 14:50 33.560519 -114.205497 90 8929ft 209kts
18-Sep-23 14:51 33.563575 -114.135808 88 9022ft 210kts
18-Sep-23 14:52 33.566867 -114.066548 89 9012ft 207kts
18-Sep-23 14:53 33.568141 -113.997482 113 8643ft 217kts
18-Sep-23 14:54 33.543220 -113.937977 119 8965ft 202kts
18-Sep-23 14:55 33.519094 -113.875378 110 8947ft 205kts
18-Sep-23 14:56 33.496833 -113.812496 123 8952ft 203kts
18-Sep-23 14:57 33.465283 -113.757097 126 8928ft 200kts
18-Sep-23 14:58 33.431867 -113.702242 123 8937ft 203kts
18-Sep-23 14:59 33.406783 -113.640221 119 8937ft 204kts
18-Sep-23 15:00 33.380338 -113.579382 124 8939ft 206kts
18-Sep-23 15:01 33.344036 -113.528224 118 8802ft 213kts
18-Sep-23 15:02 33.319776 -113.464992 117 8838ft 207kts
18-Sep-23 15:03 33.295578 -113.404020 120 8942ft 202kts
18-Sep-23 15:04 33.267234 -113.344373 119 8903ft 207kts
18-Sep-23 15:05 33.246634 -113.280050 111 8952ft 209kts
18-Sep-23 15:06 33.225730 -113.216345 111 8864ft 206kts
18-Sep-23 15:07 33.205719 -113.153373 111 8918ft 205kts
18-Sep-23 15:08 33.187625 -113.089738 116 9265ft 190kts
18-Sep-23 15:09 33.155935 -113.034814 131 9100ft 198kts
18-Sep-23 15:10 33.122302 -112.981451 124 9065ft 203kts
18-Sep-23 15:11 33.091404 -112.925006 129 9079ft 201kts
18-Sep-23 15:12 33.059540 -112.869961 121 9071ft 205kts
18-Sep-23 15:13 33.031556 -112.811075 128 9038ft 204kts
18-Sep-23 15:14 32.995322 -112.759778 135 9039ft 204kts
18-Sep-23 15:15 32.974154 -112.700701 73 8813ft 218kts
18-Sep-23 15:16 32.976356 -112.631749 98 8931ft 210kts
18-Sep-23 15:17 32.963346 -112.565337 111 8975ft 206kts
18-Sep-23 15:18 32.942732 -112.502892 101 9014ft 207kts
18-Sep-23 15:19 32.938976 -112.440285 92 9037ft 209kts
18-Sep-23 15:20 32.941390 -112.370952 94 8989ft 204kts
18-Sep-23 15:22 32.934597 -112.305919 101 8439ft 197kts
18-Sep-23 15:23 32.931542 -112.240413 91 8079ft 192kts
18-Sep-23 15:24 32.928777 -112.176892 102 7836ft 188kts
18-Sep-23 15:25 32.923442 -112.117571 94 7342ft 171kts
18-Sep-23 15:26 32.917778 -112.070165 105 7654ft 142kts
18-Sep-23 15:27 32.912439 -112.021045 103 7509ft 153kts
18-Sep-23 15:28 32.904659 -111.971486 101 7290ft 153kts
18-Sep-23 15:29 32.900554 -111.920697 123 7064ft 162kts
18-Sep-23 15:30 32.856096 -111.892436 154 7186ft 196kts
18-Sep-23 15:31 32.807026 -111.859027 152 7038ft 204kts
18-Sep-23 15:32 32.757861 -111.826232 159 7128ft 199kts
18-Sep-23 15:33 32.707327 -111.795792 156 6957ft 203kts
18-Sep-23 15:34 32.658879 -111.762697 147 6925ft 203kts
18-Sep-23 15:35 32.608546 -111.734079 162 6974ft 197kts
18-Sep-23 15:36 32.555123 -111.716176 158 6898ft 199kts
18-Sep-23 15:37 32.505161 -111.686323 156 6818ft 201kts
18-Sep-23 15:38 32.454633 -111.660331 154 6982ft 197kts
18-Sep-23 15:39 32.406484 -111.627057 150 6953ft 202kts
18-Sep-23 15:40 32.355257 -111.600216 157 6785ft 202kts
18-Sep-23 15:41 32.304809 -111.568062 147 6405ft 210kts
18-Sep-23 15:42 32.252072 -111.542587 158 5922ft 192kts
18-Sep-23 15:43 32.211041 -111.509479 133 4934ft 168kts
18-Sep-23 15:44 32.184608 -111.469648 128 4987ft 151kts
18-Sep-23 15:45 32.161636 -111.429913 135 4973ft 155kts
18-Sep-23 15:46 32.132841 -111.394718 142 5052ft 150kts
18-Sep-23 15:47 32.106431 -111.355411 126 5045ft 152kts
18-Sep-23 15:48 32.100318 -111.311270 68 5115ft 157kts
18-Sep-23 15:49 32.115769 -111.261924 61 4603ft 162kts
18-Sep-23 15:50 32.130221 -111.212036 75 3398ft 149kts
18-Sep-23 15:51 32.148684 -111.176830 18 2792ft 123kts
18-Sep-23 15:51 32.157901 -111.148173 81 2996ft 121kts
18-Sep-23 15:53 32.157608 -111.109160 225 3024ft 111kts
18-Sep-23 15:54 32.151950 -111.142872 246 2817ft 106kts
18-Sep-23 15:55 32.143471 -111.168366 258 2421ft 21kts
18-Sep-23 15:55 32.142983 -111.169961 249 2421ft 9kts
18-Sep-23 15:56 32.141870 -111.172341 145 2421ft 0kts
18-Sep-23 15:57 32.141868 -111.172340 145 2421ft 0kts
18-Sep-23 15:59 32.141121 -111.173957 250 2421ft 16kts
18-Sep-23 16:00 32.140192 -111.176561 187 2421ft 0kts
18-Sep-23 16:00 32.140191 -111.176562 187 2421ft 0kts
18-Sep-23 16:01 32.140191 -111.176562 187 2421ft 0kts
18-Sep-23 16:02 32.140191 -111.176562 187 2421ft 0kts

Navigation Log

Ident Type
Flight plan parsing failed, navigation log unavailable